Playa Vista, CA (90094)

5:59 PM PDT on August 29, 2015 (GMT -0700)
Paseo Del Rey Elementary | | Change Station
CLOSE
Current Station
Personal Weather Station
Location: Playa Del Rey, CA
Elevation: 138 ft
Nearby Weather Stations

Elev 138 ft 33.96 °N, 118.43 °W | Updated 7 seconds ago

Clear
Clear
77.4 °F
Feels Like 79 °F
N
5.0
Wind Variable Wind from SSW
Gusts 13.0 mph

Today
High -- | Low -- °F
--% Chance of Precip.
Yesterday
High -- | Low -- °F
Precip. -- in
6:25 AM 7:23 PM
Full, 100% visible
Pressure 29.83 in
Visibility 10.0 miles
Clouds Few 10000 ft
Heat Index 79 °F
Dew Point 71 °F
Humidity 81%
Rainfall in
Snow Depth Not available.
UV 1 out of 12
Pollen 6.60 out of 12
Air Quality Not available.
Flu Activity Not available.
METAR KLAX 300053Z 25011KT 10SM FEW100 26/19 A2983 RMK AO2 SLP100 T02560189 $
Pressure 29.83 in
Visibility 10.0 miles
Clouds Few 10000 ft
Heat Index 79 °F
Dew Point 71 °F
Humidity 81%
Rainfall in
Snow Depth Not available.
UV 1 out of 12
Pollen 6.60 out of 12
Air Quality Not available.
Flu Activity Not available.
METAR KLAX 300053Z 25011KT 10SM FEW100 26/19 A2983 RMK AO2 SLP100 T02560189 $

10-Day Weather Forecast

×

Almanac

Astronomy

Aug. 29, 2015 Rise Set
Actual Time
Civil Twilight
Nautical Twilight
Astronomical Twilight
Moon
Length of Visible Light
Length of Day
Tomorrow will be .
, % of the Moon is Illuminated

Today's Extremes

State Highs State Lows

Community

WunderPhotos

Upload Photos

1,850,813 photos uploaded!

WunderBlogs® & News

Nearby

Air Quality

  Air Quality AQ Index Pollutant
Not available.

Snow Depth

Station Depth Elevation

Earthquake Activity

City Distance Mag. Time & Date
Minimum magnitude displayed is 2.5.

Coastal Water Temperatures

Place Temperature

Stations

Nearby Weather Stations

Station Location Temp. Windchill Dew Point Humidity Wind Precip. Elev Updated Type